createdAt,value
2023-04-30T00:01:26.899Z,2.83
2023-04-30T00:03:53.398Z,2.30
2023-04-30T00:06:20.015Z,2.70
2023-04-30T00:08:46.559Z,2.72
2023-04-30T00:11:13.080Z,2.47
2023-04-30T00:13:39.536Z,2.60
2023-04-30T00:16:06.167Z,2.80
2023-04-30T00:18:32.713Z,2.85
2023-04-30T00:20:59.157Z,2.70
2023-04-30T00:23:25.635Z,2.90
2023-04-30T00:25:52.066Z,3.08
2023-04-30T00:28:18.561Z,3.35
2023-04-30T00:30:45.193Z,3.05
2023-04-30T00:33:11.666Z,3.45
2023-04-30T00:35:38.103Z,3.00
2023-04-30T00:38:04.526Z,3.00
2023-04-30T00:40:33.381Z,3.45
2023-04-30T00:42:59.868Z,2.67
2023-04-30T00:45:26.330Z,3.50
2023-04-30T00:47:53.117Z,2.95
2023-04-30T00:50:19.968Z,3.40
2023-04-30T00:52:46.510Z,3.58
2023-04-30T00:55:13.359Z,3.17
2023-04-30T00:57:40.912Z,3.13
2023-04-30T01:00:11.161Z,3.33
2023-04-30T01:02:38.372Z,3.50
2023-04-30T01:05:05.359Z,3.38
2023-04-30T01:07:33.965Z,3.33
2023-04-30T01:10:01.009Z,3.88
2023-04-30T01:12:50.057Z,3.40
2023-04-30T01:15:42.921Z,3.80
2023-04-30T01:18:28.310Z,3.42
2023-04-30T01:21:01.893Z,3.58
2023-04-30T01:23:40.242Z,3.42
2023-04-30T01:26:24.666Z,3.85
2023-04-30T01:28:53.268Z,3.78
2023-04-30T01:31:20.086Z,3.80
2023-04-30T01:33:46.895Z,4.00
2023-04-30T01:36:38.113Z,3.85
2023-04-30T01:39:13.686Z,3.85
2023-04-30T01:42:06.852Z,4.65
2023-04-30T01:44:51.471Z,4.70
2023-04-30T01:47:53.561Z,4.57
2023-04-30T01:50:26.244Z,4.20
2023-04-30T01:52:56.663Z,4.13
2023-04-30T01:55:37.937Z,4.20
2023-04-30T01:58:11.012Z,4.28
2023-04-30T02:00:37.481Z,4.18
2023-04-30T02:03:04.276Z,4.65
2023-04-30T02:05:31.052Z,4.43
2023-04-30T02:07:57.593Z,4.43
2023-04-30T02:10:26.925Z,5.05
2023-04-30T02:12:53.658Z,5.43
2023-04-30T02:15:20.319Z,5.40
2023-04-30T02:17:46.916Z,4.82
2023-04-30T02:20:13.734Z,5.22
2023-04-30T02:22:40.293Z,5.18
2023-04-30T02:25:12.381Z,5.25
2023-04-30T02:27:38.942Z,5.32
2023-04-30T02:30:08.766Z,5.18
2023-04-30T02:32:35.470Z,5.32
2023-04-30T02:35:02.089Z,5.00
2023-04-30T02:37:28.756Z,5.05
2023-04-30T02:39:55.345Z,5.45
2023-04-30T02:42:22.040Z,5.75
2023-04-30T02:44:48.584Z,5.50
2023-04-30T02:47:15.132Z,5.28
2023-04-30T02:49:41.588Z,6.20
2023-04-30T02:52:09.580Z,5.63
2023-04-30T02:54:36.533Z,4.95
2023-04-30T02:57:03.454Z,5.22
2023-04-30T02:59:29.940Z,5.45
2023-04-30T03:01:56.347Z,5.75
2023-04-30T03:04:22.843Z,5.07
2023-04-30T03:06:49.271Z,5.20
2023-04-30T03:09:15.835Z,4.85
2023-04-30T03:11:42.359Z,5.07
2023-04-30T03:14:12.310Z,4.95
2023-04-30T03:16:38.894Z,5.78
2023-04-30T03:19:05.859Z,5.15
2023-04-30T03:21:32.635Z,5.22
2023-04-30T03:23:59.171Z,5.78
2023-04-30T03:26:25.795Z,5.03
2023-04-30T03:28:52.261Z,5.53
2023-04-30T03:31:18.951Z,5.50
2023-04-30T03:33:45.496Z,5.35
2023-04-30T03:36:12.768Z,5.10
2023-04-30T03:38:39.192Z,5.03
2023-04-30T03:41:05.668Z,5.40
2023-04-30T03:43:32.154Z,5.05
2023-04-30T03:45:58.813Z,6.30
2023-04-30T03:48:25.494Z,5.63
2023-04-30T03:50:52.003Z,5.50
2023-04-30T03:53:18.549Z,5.35
2023-04-30T03:55:45.382Z,5.53
2023-04-30T03:58:14.002Z,5.07
2023-04-30T04:00:43.770Z,5.50
2023-04-30T04:03:10.313Z,5.80
2023-04-30T04:05:36.823Z,6.72
2023-04-30T04:08:03.322Z,5.50
2023-04-30T04:10:29.855Z,5.70
2023-04-30T04:12:56.383Z,4.78
2023-04-30T04:15:22.889Z,6.05
2023-04-30T04:17:49.371Z,6.22
2023-04-30T04:20:15.968Z,6.55
2023-04-30T04:22:42.668Z,6.03
2023-04-30T04:25:09.779Z,6.13
2023-04-30T04:27:36.267Z,5.72
2023-04-30T04:30:03.307Z,6.45
2023-04-30T04:32:30.642Z,6.10
2023-04-30T04:34:57.169Z,5.88
2023-04-30T04:37:23.715Z,6.93
2023-04-30T04:39:51.394Z,6.15
2023-04-30T04:42:18.044Z,5.93
2023-04-30T04:44:47.042Z,6.07
2023-04-30T04:47:13.562Z,5.70
2023-04-30T04:49:40.106Z,6.55
2023-04-30T04:52:06.626Z,6.43
2023-04-30T04:54:33.569Z,6.40
2023-04-30T04:57:00.061Z,6.90
2023-04-30T04:59:26.665Z,6.43
2023-04-30T05:01:56.959Z,6.75
2023-04-30T05:04:23.470Z,6.20
2023-04-30T05:06:49.906Z,7.20
2023-04-30T05:09:19.648Z,7.10
2023-04-30T05:11:49.072Z,7.10
2023-04-30T05:14:17.479Z,7.65
2023-04-30T05:16:44.194Z,6.95
2023-04-30T05:19:10.767Z,6.78
2023-04-30T05:21:37.304Z,6.47
2023-04-30T05:24:05.166Z,6.32
2023-04-30T05:26:31.717Z,7.30
2023-04-30T05:28:58.252Z,6.93
2023-04-30T05:31:24.703Z,6.25
2023-04-30T05:33:51.128Z,6.18
2023-04-30T05:36:17.700Z,6.47
2023-04-30T05:38:44.125Z,7.50
2023-04-30T05:41:12.567Z,7.47
2023-04-30T05:43:39.066Z,6.88
2023-04-30T05:46:05.836Z,7.38
2023-04-30T05:48:32.312Z,6.75
2023-04-30T05:50:58.812Z,6.63
2023-04-30T05:53:25.716Z,6.68
2023-04-30T05:55:52.230Z,6.22
2023-04-30T05:58:18.751Z,6.63
2023-04-30T06:00:49.384Z,7.70
2023-04-30T06:03:19.531Z,6.90
2023-04-30T06:05:48.811Z,6.57
2023-04-30T06:08:16.662Z,6.53
2023-04-30T06:10:43.228Z,6.57
2023-04-30T06:13:09.729Z,6.53
2023-04-30T06:15:36.312Z,7.07
2023-04-30T06:18:03.124Z,6.32
2023-04-30T06:20:29.949Z,6.18
2023-04-30T06:22:56.415Z,6.63
2023-04-30T06:25:23.004Z,6.68
2023-04-30T06:27:51.885Z,6.97
2023-04-30T06:30:18.550Z,6.68
2023-04-30T06:32:46.707Z,5.85
2023-04-30T06:35:13.482Z,6.75
2023-04-30T06:37:40.580Z,5.88
2023-04-30T06:40:07.873Z,6.28
2023-04-30T06:42:36.057Z,6.40
2023-04-30T06:45:04.027Z,5.45
2023-04-30T06:47:42.832Z,6.05
2023-04-30T06:50:09.687Z,6.07
2023-04-30T06:52:36.154Z,5.25
2023-04-30T06:55:02.809Z,5.15
2023-04-30T06:57:29.318Z,5.35
2023-04-30T06:59:56.730Z,5.85
2023-04-30T07:02:23.517Z,5.60
2023-04-30T07:04:50.042Z,5.22
2023-04-30T07:07:18.171Z,5.47
2023-04-30T07:09:44.933Z,6.15
2023-04-30T07:12:13.646Z,5.65
2023-04-30T07:14:40.308Z,5.85
2023-04-30T07:17:06.944Z,5.40
2023-04-30T07:19:33.584Z,4.95
2023-04-30T07:22:00.090Z,6.20
2023-04-30T07:24:26.585Z,5.63
2023-04-30T07:26:53.092Z,5.80
2023-04-30T07:29:19.648Z,6.32
2023-04-30T07:31:48.127Z,5.55
2023-04-30T07:34:15.006Z,5.07
2023-04-30T07:36:41.860Z,5.97
2023-04-30T07:39:08.565Z,5.78
2023-04-30T07:41:35.398Z,5.55
2023-04-30T07:44:02.475Z,5.47
2023-04-30T07:46:29.160Z,6.13
2023-04-30T07:48:56.219Z,5.63
2023-04-30T07:51:23.224Z,4.97
2023-04-30T07:53:50.015Z,4.45
2023-04-30T07:56:18.899Z,5.35
2023-04-30T07:58:49.000Z,5.47
2023-04-30T08:01:17.760Z,5.50
2023-04-30T08:03:44.610Z,5.28
2023-04-30T08:06:11.299Z,5.60
2023-04-30T08:08:38.082Z,5.32
2023-04-30T08:11:04.584Z,4.93
2023-04-30T08:13:31.081Z,5.00
2023-04-30T08:15:57.589Z,4.80
2023-04-30T08:18:24.089Z,6.47
2023-04-30T08:20:50.577Z,4.88
2023-04-30T08:23:18.243Z,5.15
2023-04-30T08:25:44.737Z,5.20
2023-04-30T08:28:11.189Z,5.22
2023-04-30T08:30:38.028Z,4.88
2023-04-30T08:33:04.880Z,5.78
2023-04-30T08:35:32.187Z,4.63
2023-04-30T08:38:01.412Z,7.55
2023-04-30T08:40:49.154Z,7.30
2023-04-30T08:43:16.559Z,9.20
2023-04-30T08:45:44.527Z,6.63
2023-04-30T08:48:12.352Z,7.32
2023-04-30T08:50:38.926Z,8.25
2023-04-30T08:53:07.780Z,7.22
2023-04-30T08:55:35.100Z,7.18
2023-04-30T08:58:01.626Z,7.45
2023-04-30T09:00:28.367Z,6.10
2023-04-30T09:02:55.106Z,7.47
2023-04-30T09:05:21.727Z,5.68
2023-04-30T09:08:01.569Z,8.85
2023-04-30T09:10:33.139Z,19.20
2023-04-30T09:13:05.129Z,5.32
2023-04-30T09:15:32.959Z,6.25
2023-04-30T09:18:12.150Z,8.13
2023-04-30T09:20:57.775Z,10.73
2023-04-30T09:23:25.074Z,6.40
2023-04-30T09:25:51.636Z,7.75
2023-04-30T09:28:25.303Z,7.90
2023-04-30T09:30:52.704Z,5.10
2023-04-30T09:33:19.611Z,8.20
2023-04-30T09:35:49.947Z,5.90
2023-04-30T09:38:33.120Z,7.22
2023-04-30T09:41:01.085Z,6.22
2023-04-30T09:43:28.710Z,4.88
2023-04-30T09:45:57.721Z,7.93
2023-04-30T09:48:28.037Z,11.32
2023-04-30T09:50:54.523Z,4.03
2023-04-30T09:53:21.607Z,10.73
2023-04-30T09:55:52.030Z,4.30
2023-04-30T09:58:19.626Z,5.20
2023-04-30T10:00:50.790Z,7.70
2023-04-30T10:03:22.906Z,6.68
2023-04-30T10:05:53.086Z,6.15
2023-04-30T10:08:32.089Z,5.15
2023-04-30T10:11:03.141Z,5.05
2023-04-30T10:13:32.553Z,5.00
2023-04-30T10:16:01.491Z,4.32
2023-04-30T10:18:31.242Z,4.53
2023-04-30T10:21:03.047Z,4.05
2023-04-30T10:23:30.346Z,5.45
2023-04-30T10:25:57.721Z,6.32
2023-04-30T10:28:25.857Z,8.20
2023-04-30T10:30:52.684Z,5.63
2023-04-30T10:33:28.677Z,5.70
2023-04-30T10:36:04.289Z,10.90
2023-04-30T10:38:32.513Z,5.30
2023-04-30T10:41:01.258Z,6.47
2023-04-30T10:43:30.348Z,4.72
2023-04-30T10:46:00.546Z,6.35
2023-04-30T10:48:27.569Z,6.18
2023-04-30T10:51:00.702Z,5.35
2023-04-30T10:53:31.312Z,5.32
2023-04-30T10:56:06.869Z,4.45
2023-04-30T10:58:35.706Z,5.00
2023-04-30T11:01:19.412Z,3.85
2023-04-30T11:04:08.570Z,6.25
2023-04-30T11:07:00.773Z,5.70
2023-04-30T11:09:41.229Z,5.00
2023-04-30T11:12:13.292Z,5.13
2023-04-30T11:14:45.381Z,5.63
2023-04-30T11:17:13.969Z,5.70
2023-04-30T11:19:51.005Z,5.70
2023-04-30T11:22:24.964Z,5.72
2023-04-30T11:25:00.869Z,5.53
2023-04-30T11:27:29.312Z,5.00
2023-04-30T11:29:57.089Z,5.30
2023-04-30T11:32:26.099Z,5.80
2023-04-30T11:34:53.978Z,5.50
2023-04-30T11:37:29.810Z,5.72
2023-04-30T11:39:57.591Z,4.50
2023-04-30T11:42:24.054Z,4.60
2023-04-30T11:44:50.526Z,5.43
2023-04-30T11:47:19.810Z,5.57
2023-04-30T11:49:47.897Z,6.03
2023-04-30T11:52:14.527Z,5.28
2023-04-30T11:54:41.176Z,5.28
2023-04-30T11:57:07.642Z,4.50
2023-04-30T11:59:43.927Z,4.38
2023-04-30T12:02:18.714Z,4.22
2023-04-30T12:04:45.320Z,4.97
2023-04-30T12:07:11.897Z,4.18
2023-04-30T12:09:57.367Z,4.60
2023-04-30T12:12:30.564Z,4.93
2023-04-30T12:14:57.608Z,4.82
2023-04-30T12:17:32.606Z,5.18
2023-04-30T12:19:59.398Z,4.38
2023-04-30T12:22:26.202Z,4.97
2023-04-30T12:24:52.710Z,4.03
2023-04-30T12:27:19.245Z,4.35
2023-04-30T12:29:47.594Z,4.20
2023-04-30T12:32:18.594Z,4.72
2023-04-30T12:34:45.377Z,4.68
2023-04-30T12:37:15.680Z,4.00
2023-04-30T12:39:42.195Z,4.35
2023-04-30T12:42:08.975Z,3.95
2023-04-30T12:44:44.708Z,4.53
2023-04-30T12:47:11.626Z,4.03
2023-04-30T12:49:38.351Z,4.25
2023-04-30T12:52:08.560Z,3.95
2023-04-30T12:54:39.486Z,4.00
2023-04-30T12:57:11.974Z,4.75
2023-04-30T12:59:40.462Z,4.72
2023-04-30T13:02:11.719Z,4.47
2023-04-30T13:04:39.427Z,4.85
2023-04-30T13:07:06.259Z,4.60
2023-04-30T13:09:34.623Z,4.40
2023-04-30T13:12:01.787Z,4.18
2023-04-30T13:14:28.417Z,4.40
2023-04-30T13:16:55.545Z,3.80
2023-04-30T13:19:22.084Z,4.80
2023-04-30T13:21:51.513Z,4.35
2023-04-30T13:24:22.324Z,4.35
2023-04-30T13:26:52.878Z,3.90
2023-04-30T13:29:22.814Z,3.92
2023-04-30T13:31:51.689Z,3.90
2023-04-30T13:34:21.400Z,4.32
2023-04-30T13:36:49.969Z,4.07
2023-04-30T13:39:16.470Z,4.38
2023-04-30T13:41:42.984Z,4.05
2023-04-30T13:44:09.524Z,4.28
2023-04-30T13:46:36.118Z,4.13
2023-04-30T13:49:02.794Z,4.13
2023-04-30T13:51:29.251Z,3.75
2023-04-30T13:53:55.738Z,4.00
2023-04-30T13:56:22.267Z,3.92
2023-04-30T13:58:52.033Z,3.85
2023-04-30T14:01:21.100Z,4.15
2023-04-30T14:03:50.420Z,3.90
2023-04-30T14:06:17.497Z,4.57
2023-04-30T14:08:44.126Z,4.50
2023-04-30T14:11:10.629Z,4.00
2023-04-30T14:13:37.182Z,4.28
2023-04-30T14:16:03.966Z,4.60
2023-04-30T14:18:30.837Z,3.88
2023-04-30T14:20:57.270Z,4.22
2023-04-30T14:23:23.799Z,3.80
2023-04-30T14:25:50.668Z,4.13
2023-04-30T14:28:17.917Z,3.85
2023-04-30T14:30:44.495Z,4.13
2023-04-30T14:33:12.470Z,4.15
2023-04-30T14:35:39.599Z,4.10
2023-04-30T14:38:06.028Z,4.07
2023-04-30T14:40:32.542Z,4.32
2023-04-30T14:42:59.030Z,4.53
2023-04-30T14:45:28.145Z,3.88
2023-04-30T14:47:54.690Z,4.07
2023-04-30T14:50:21.277Z,4.60
2023-04-30T14:52:48.775Z,4.47
2023-04-30T14:55:15.190Z,4.53
2023-04-30T14:57:41.666Z,4.53
2023-04-30T15:00:09.962Z,3.92
2023-04-30T15:02:36.561Z,3.55
2023-04-30T15:05:05.233Z,4.35
2023-04-30T15:07:31.713Z,4.05
2023-04-30T15:09:58.384Z,4.00
2023-04-30T15:12:25.013Z,4.20
2023-04-30T15:14:51.531Z,3.90
2023-04-30T15:17:20.387Z,4.38
2023-04-30T15:19:46.990Z,3.97
2023-04-30T15:22:14.022Z,5.30
2023-04-30T15:24:40.480Z,4.35
2023-04-30T15:27:07.061Z,4.95
2023-04-30T15:29:33.790Z,4.35
2023-04-30T15:32:00.411Z,4.55
2023-04-30T15:34:27.035Z,4.55
2023-04-30T15:36:54.197Z,4.70
2023-04-30T15:39:21.726Z,4.40
2023-04-30T15:41:50.370Z,4.80
2023-04-30T15:44:21.113Z,4.50
2023-04-30T15:46:50.348Z,4.15
2023-04-30T15:49:16.861Z,4.50
2023-04-30T15:51:43.334Z,4.40
2023-04-30T15:54:11.377Z,4.25
2023-04-30T15:56:37.872Z,4.53
2023-04-30T15:59:04.303Z,4.55
2023-04-30T16:01:30.852Z,4.85
2023-04-30T16:03:57.609Z,4.18
2023-04-30T16:06:24.475Z,4.10
2023-04-30T16:08:51.138Z,4.18
2023-04-30T16:11:20.155Z,4.55
2023-04-30T16:13:47.192Z,4.40
2023-04-30T16:16:14.623Z,4.80
2023-04-30T16:18:41.201Z,4.10
2023-04-30T16:21:09.273Z,4.00
2023-04-30T16:23:36.723Z,4.47
2023-04-30T16:26:03.286Z,4.47
2023-04-30T16:28:29.778Z,4.40
2023-04-30T16:30:56.312Z,4.30
2023-04-30T16:33:24.931Z,4.05
2023-04-30T16:35:51.565Z,4.63
2023-04-30T16:38:20.077Z,4.10
2023-04-30T16:40:46.594Z,3.80
2023-04-30T16:43:13.137Z,3.67
2023-04-30T16:45:39.941Z,3.92
2023-04-30T16:48:07.008Z,4.18
2023-04-30T16:50:33.574Z,3.78
2023-04-30T16:53:00.005Z,3.92
2023-04-30T16:55:27.504Z,4.20
2023-04-30T16:57:54.117Z,4.07
2023-04-30T17:00:20.835Z,4.00
2023-04-30T17:02:53.638Z,3.85
2023-04-30T17:05:21.376Z,4.38
2023-04-30T17:07:52.395Z,4.00
2023-04-30T17:10:21.744Z,4.38
2023-04-30T17:12:48.661Z,4.20
2023-04-30T17:15:15.479Z,4.22
2023-04-30T17:17:42.384Z,4.40
2023-04-30T17:20:09.640Z,4.70
2023-04-30T17:22:38.733Z,4.03
2023-04-30T17:25:05.825Z,3.90
2023-04-30T17:27:32.565Z,4.28
2023-04-30T17:29:59.507Z,4.22
2023-04-30T17:32:26.613Z,3.95
2023-04-30T17:34:53.753Z,4.80
2023-04-30T17:37:24.246Z,4.18
2023-04-30T17:39:54.138Z,4.63
2023-04-30T17:42:23.693Z,4.47
2023-04-30T17:44:52.311Z,4.28
2023-04-30T17:47:19.126Z,4.90
2023-04-30T17:49:45.603Z,4.00
2023-04-30T17:52:16.094Z,4.32
2023-04-30T17:54:43.235Z,3.97
2023-04-30T17:57:10.024Z,4.13
2023-04-30T17:59:39.555Z,3.95
2023-04-30T18:02:07.523Z,4.07
2023-04-30T18:04:34.795Z,3.85
2023-04-30T18:07:01.605Z,4.03
2023-04-30T18:09:28.111Z,4.25
2023-04-30T18:11:55.364Z,3.85
2023-04-30T18:14:24.866Z,4.47
2023-04-30T18:16:55.091Z,5.55
2023-04-30T18:19:24.790Z,3.55
2023-04-30T18:21:56.932Z,3.40
2023-04-30T18:24:28.492Z,4.03
2023-04-30T18:26:58.113Z,4.00
2023-04-30T18:29:24.737Z,2.72
2023-04-30T18:31:53.159Z,2.42
2023-04-30T18:34:19.714Z,2.63
2023-04-30T18:36:46.139Z,3.33
2023-04-30T18:39:12.638Z,3.67
2023-04-30T18:41:39.424Z,3.35
2023-04-30T18:44:06.900Z,3.58
2023-04-30T18:46:33.596Z,2.80
2023-04-30T18:49:00.105Z,1.60
2023-04-30T18:51:26.589Z,2.17
2023-04-30T18:53:57.222Z,1.58
2023-04-30T18:56:26.707Z,2.05
2023-04-30T18:58:56.011Z,2.28
2023-04-30T19:01:27.280Z,2.08
2023-04-30T19:03:54.226Z,1.42
2023-04-30T19:06:20.895Z,1.90
2023-04-30T19:08:47.913Z,2.03
2023-04-30T19:11:14.406Z,2.00
2023-04-30T19:13:40.937Z,2.05
2023-04-30T19:16:07.572Z,1.98
2023-04-30T19:18:35.175Z,2.08
2023-04-30T19:21:02.393Z,1.92
2023-04-30T19:23:32.380Z,1.67
2023-04-30T19:25:59.738Z,2.60
2023-04-30T19:28:26.612Z,1.98
2023-04-30T19:30:57.505Z,2.42
2023-04-30T19:33:28.324Z,2.22
2023-04-30T19:35:55.156Z,2.35
2023-04-30T19:38:24.244Z,1.70
2023-04-30T19:40:53.788Z,2.35
2023-04-30T19:43:23.838Z,2.22
2023-04-30T19:45:59.735Z,1.80
2023-04-30T19:48:26.766Z,2.08
2023-04-30T19:50:54.995Z,2.13
2023-04-30T19:53:24.182Z,2.20
2023-04-30T19:55:54.284Z,2.63
2023-04-30T19:58:20.862Z,2.42
2023-04-30T20:00:53.389Z,2.40
2023-04-30T20:03:20.587Z,2.75
2023-04-30T20:05:47.368Z,2.72
2023-04-30T20:08:13.867Z,2.35
2023-04-30T20:10:41.512Z,2.38
2023-04-30T20:13:09.341Z,2.40
2023-04-30T20:15:35.909Z,2.35
2023-04-30T20:18:02.426Z,2.22
2023-04-30T20:20:31.652Z,1.80
2023-04-30T20:22:58.189Z,2.30
2023-04-30T20:25:31.202Z,2.33
2023-04-30T20:27:57.707Z,2.80
2023-04-30T20:30:24.877Z,2.60
2023-04-30T20:32:55.021Z,2.30
2023-04-30T20:35:24.282Z,2.67
2023-04-30T20:37:54.726Z,2.40
2023-04-30T20:40:23.967Z,2.65
2023-04-30T20:42:54.169Z,2.75
2023-04-30T20:45:21.068Z,2.67
2023-04-30T20:47:47.722Z,3.00
2023-04-30T20:50:15.282Z,3.08
2023-04-30T20:52:41.728Z,3.22
2023-04-30T20:55:08.724Z,3.28
2023-04-30T20:57:36.299Z,3.28
2023-04-30T21:00:04.971Z,3.05
2023-04-30T21:02:31.546Z,3.45
2023-04-30T21:05:04.420Z,3.33
2023-04-30T21:07:33.431Z,3.08
2023-04-30T21:10:01.252Z,3.80
2023-04-30T21:12:28.456Z,2.80
2023-04-30T21:14:59.663Z,3.30
2023-04-30T21:17:26.326Z,2.90
2023-04-30T21:19:55.892Z,3.53
2023-04-30T21:22:29.835Z,3.80
2023-04-30T21:24:57.097Z,3.50
2023-04-30T21:27:24.817Z,3.20
2023-04-30T21:29:51.314Z,2.97
2023-04-30T21:32:17.861Z,3.60
2023-04-30T21:34:44.656Z,3.38
2023-04-30T21:37:11.117Z,3.28
2023-04-30T21:39:37.673Z,2.83
2023-04-30T21:42:04.632Z,3.25
2023-04-30T21:44:32.776Z,2.50
2023-04-30T21:46:59.600Z,2.60
2023-04-30T21:49:29.106Z,2.90
2023-04-30T21:51:59.769Z,3.08
2023-04-30T21:54:30.011Z,2.80
2023-04-30T21:57:01.001Z,2.70
2023-04-30T21:59:28.313Z,3.20
2023-04-30T22:01:57.081Z,3.03
2023-04-30T22:04:28.362Z,2.72
2023-04-30T22:06:54.990Z,3.20
2023-04-30T22:09:21.441Z,3.35
2023-04-30T22:11:49.433Z,2.75
2023-04-30T22:14:16.307Z,2.90
2023-04-30T22:16:43.028Z,2.92
2023-04-30T22:19:09.506Z,3.40
2023-04-30T22:21:36.236Z,2.67
2023-04-30T22:24:02.709Z,2.85
2023-04-30T22:26:29.641Z,3.00
2023-04-30T22:28:59.225Z,3.00
2023-04-30T22:31:26.247Z,2.70
2023-04-30T22:33:52.705Z,2.63
2023-04-30T22:36:19.141Z,2.20
2023-04-30T22:38:45.716Z,2.97
2023-04-30T22:41:12.395Z,2.58
2023-04-30T22:43:38.984Z,2.72
2023-04-30T22:46:05.637Z,2.72
2023-04-30T22:48:33.189Z,2.65
2023-04-30T22:51:00.730Z,2.90
2023-04-30T22:53:30.598Z,2.55
2023-04-30T22:55:57.188Z,2.95
2023-04-30T22:58:23.654Z,2.13
2023-04-30T23:00:50.206Z,2.60
2023-04-30T23:03:17.250Z,2.65
2023-04-30T23:05:44.054Z,2.88
2023-04-30T23:08:10.741Z,2.72
2023-04-30T23:10:37.253Z,3.10
2023-04-30T23:13:03.687Z,2.97
2023-04-30T23:15:33.353Z,2.60
2023-04-30T23:18:02.174Z,2.67
2023-04-30T23:20:28.708Z,2.70
2023-04-30T23:22:56.107Z,2.90
2023-04-30T23:25:22.840Z,2.70
2023-04-30T23:27:49.261Z,2.88
2023-04-30T23:30:15.770Z,2.63
2023-04-30T23:32:42.639Z,3.05
2023-04-30T23:35:09.372Z,2.63
2023-04-30T23:37:36.035Z,2.88
2023-04-30T23:40:07.431Z,2.83
2023-04-30T23:42:34.690Z,2.75
2023-04-30T23:45:04.892Z,2.40
2023-04-30T23:47:32.732Z,3.00
2023-04-30T23:49:59.205Z,3.10
2023-04-30T23:52:25.663Z,3.00
2023-04-30T23:54:52.145Z,3.03
2023-04-30T23:57:18.621Z,2.40
2023-04-30T23:59:45.349Z,2.65
